AirNav   Air Wisconsin Up To $57,000 Bonus
 
 361 users online  

3PS3 Keller Heliport
Bushkill Township, Pennsylvania, USA

GOING TO BUSHKILL TOWNSHIP?


FAA INFORMATION EFFECTIVE 07 NOVEMBER 2019

Location

FAA Identifier: 3PS3
Lat/Long: 40-48-23.0000N 075-19-18.0000W
40-48.383333N 075-19.300000W
40.8063889,-75.3216667
(estimated)
Elevation: 685 ft. / 209 m (estimated)
From city: 12 miles NE of BUSHKILL TOWNSHIP, PA
Time zone: UTC -5 (UTC -4 during Daylight Saving Time)
Zip code: 18091

Heliport Operations

Heliport use: Private use. Permission required prior to landing
Activation date: 05/2015
Control tower: no
ARTCC: NEW YORK CENTER
FSS: ALTOONA FLIGHT SERVICE STATION
Attendance: UNATT
Wind indicator: yes
Segmented circle: no

Heliport Communications

WX ASOS at ABE (11 nm SW): PHONE 610-266-3579
WX AWOS-3 at XLL (16 nm SW): 127.875 (610-231-3111)
WX AWOS-3PT at 22N (20 nm W): 119.350 (570-386-3423)

Nearby radio navigation aids

VOR radial/distance  VOR name  Freq  Var
FJCr062/7.7ALLENTOWN VORTAC117.5010W
ETXr060/21.3EAST TEXAS VOR/DME110.2009W
BWZr282/22.7BROADWAY VOR/DME114.2011W
STWr252/23.5STILLWATER VOR/DME109.6011W
SBJr307/29.6SOLBERG VOR/DME112.9010W
LVZr159/32.6WILKES-BARRE VORTAC111.6010W
PTWr026/36.7POTTSTOWN VORTAC116.5009W
ARDr340/38.2YARDLEY VOR/DME108.2010W
SAXr257/38.8SPARTA VORTAC115.7011W

Heliport Services

Runway Information

Helipad H1

Dimensions: 40 x 40 ft. / 12 x 12 m
Surface: concrete
Traffic pattern: rightleft
Obstructions: 45 ft. pline, 150 ft. from runway
S OF HELI.

Heliport Ownership and Management from official FAA records

Ownership: Privately-owned
Owner: RICHARD VILLONE
5010 RIVER ROAD
MT. BETHEL, PA 18343
Phone 570-897-8200
Manager: RICHARD VILLONE
5010 RIVER ROAD
MT. BETHEL, PA 18343
Phone 570-897-8200

Heliport Operational Statistics

Aircraft based on the field: 1
Single engine airplanes: 1
    

Additional Remarks

WRITTEN PPR REQ FOR HELI USE.
AVOID OPS OVR BARON RD W/SW OF HELI.
AVOID SINGLE PLINE MKD WITH BALLS 150 FT S OF HELI.
INGRESS/EGRESS SE/NE & NW/SE PREF DUE TO NOISE ABATEMENT.
FOR CD CTC ALLENTOWN APCH AT 800-728-6322

Instrument Procedures

There are no published instrument procedures at 3PS3.

Some nearby airports with instrument procedures:

N43 - Braden Airpark (5 nm SE)
KABE - Lehigh Valley International Airport (11 nm SW)
N53 - Stroudsburg-Pocono Airport (16 nm NE)
KXLL - Allentown Queen City Municipal Airport (16 nm SW)
1N7 - Blairstown Airport (18 nm NE)
N85 - Alexandria Airport (19 nm SE)
22N - Jake Arner Memorial Airport (20 nm W)
 
Loc | Ops | Rwys | IFR | FBO | Links
Com | Nav | Svcs | Stats | Notes
Aerial photo
No photo
 
Airport distance calculator
Flying to Keller Heliport? Find the distance to fly.

From to 3PS3

Sunrise and sunset
Times for 12-Nov-2019
 Local
(UTC-5)
 Zulu
(UTC)
Morning civil twilight06:1711:17
Sunrise06:4611:46
Sunset16:4521:45
Evening civil twilight17:1422:14

Current date and time
Zulu (UTC)  12-Nov-2019 06:51:19
Local (UTC-5)  12-Nov-2019 01:51:19
 
METAR
KABE 
11nm SW 
120551Z 24003KT 10SM CLR 12/06 A2973 RMK AO2 SLP067 T01170056 10144 20083 58029
KXLL 
16nm SW 
120635Z AUTO 19005KT 10SM CLR 12/07 A2973 RMK AO2
KMPO 
20nm N 
120553Z AUTO 18006KT 10SM CLR 08/05 A2971 RMK AO2 SLP062 T00830050 10089 20061 56032 $
K22N 
20nm W 
120638Z AUTO 00000KT 10SM SCT110 06/05 A2973 RMK AO2
TAF
KABE 
11nm SW 
120525Z 1206/1306 VRB04KT P6SM BKN150 WS020/23035KT TEMPO 1208/1210 4SM -SHRA OVC025 FM121000 28007KT P6SM OVC040 TEMPO 1210/1212 4SM -SHRA OVC025 FM121200 30011KT 6SM BR VCSH OVC020 TEMPO 1212/1214 4SM -RASN OVC025 FM121400 32015G25KT P6SM OVC050 FM122000 33015G25KT P6SM SCT150 FM130100 33015KT P6SM SKC
NOTAMs
Click for the latest NOTAMs
NOTAMs are issued by the DoD/FAA and will open in a separate window not controlled by AirNav.

 

 
 

Would you like to see your business listed on this page?

 If your business provides an interesting product or service to pilots, flight crews, aircraft, or users of the Keller Heliport, you should consider listing it here.  To start the listing process, click on the button below
 
Add a business
 

Other Pages about Keller Heliport

Update a link
 
Copyright © AirNav, LLC. All rights reserved. Privacy Policy  Contact